Monday, December 18, 2017, 5:26 PM EST
Back to Local

KBGR, Bangor Int'l Airport

Location: Bangor, ME, United States Lat: 44.8
Local Time: 5:26 PM EST (22:26 GMT) Lon: -68.817
Time Zone: US/Eastern Elev: 193 ft

Show me the last for .
Show Decoded

2017-12-18 16:53 METAR KBGR 182153Z 00000KT 1/2SM R15/P6000FT SN FZFG VV015 M09/M11 A2997 RMK AO2
                 SLP156 P0003 T10891111 =
2017-12-18 15:53 METAR KBGR 182053Z 05003KT 1/2SM R15/6000VP6000FT SN FZFG VV017 M09/M11 A2999
                 RMK AO2 SLP160 P0003 60008 T10891111 58015 =
2017-12-18 15:05 METAR KBGR 182005Z 02003KT 1/2SM R15/4500V5500FT SN FZFG OVC021 M09/M12 A3001
                 RMK AO2 P0002 T10941117 =
2017-12-18 14:53 METAR KBGR 181953Z COR 35004KT 2 1/2SM R15/P6000FT -SN BR OVC023 M09/M12 A3001
                 RMK AO2 SLP168 P0002 T10941117 =
2017-12-18 14:50 METAR KBGR 181950Z 36004KT 2 1/2SM -SN BR OVC021 M09/M12 A3001 RMK AO2 P0002 =
2017-12-18 13:53 METAR KBGR 181853Z 01006KT 3/4SM R15/4000V5500FT -SN BR VV016 M09/M12 A3003 RMK
                 AO2 TWR VIS 1 SLP175 P0003 T10941117 =
2017-12-18 13:40 METAR KBGR 181840Z 35007KT 1/2SM R15/3000V3500FT SN FZFG VV014 M09/M12 A3004 RMK
                 AO2 TWR VIS 1 P0002 T10941117 =
2017-12-18 13:03 METAR KBGR 181803Z 33005KT 3/4SM R15/4000V6000FT -SN OVC025 M09/M12 A3005 RMK
                 AO2 TWR VIS 1 P0000 T10941122 =
2017-12-18 12:53 METAR KBGR 181753Z 32005KT 1SM R15/6000VP6000FT -SN BKN027 OVC039 M09/M13 A3006
                 RMK AO2 SNB13 SLP184 4/006 P0000 60000 T10941128 11089 21150 56038 =
2017-12-18 12:45 METAR KBGR 181745Z 32005KT 1SM R15/4000VP6000FT -SN SCT029 OVC034 M09/M13 A3006
                 RMK AO2 SNB13 P0000 T10941133 =
2017-12-18 12:20 METAR KBGR 181720Z 00000KT 2SM -SN BKN039 BKN050 OVC060 M09/M14 A3006 RMK AO2
                 SFC VIS 3 SNB13 P0000 T10941144 =
2017-12-18 11:53 METAR KBGR 181653Z 00000KT 10SM BKN026 OVC070 M09/M14 A3008 RMK AO2 SLP192
                 T10941144 =
2017-12-18 10:53 METAR KBGR 181553Z 19003KT 10SM OVC100 M11/M16 A3013 RMK AO2 SLP210 T11061156 =
2017-12-18 09:53 METAR KBGR 181453Z 19003KT 10SM SCT120 OVC200 M12/M16 A3017 RMK AO2 SLP222
                 T11171156 58006 =
2017-12-18 08:53 METAR KBGR 181353Z 18003KT 10SM BKN110 OVC200 M13/M16 A3018 RMK AO2 SLP226
                 T11331156 =
2017-12-18 07:53 METAR KBGR 181253Z 00000KT 10SM BKN110 OVC200 M14/M17 A3019 RMK AO2 SLP228
                 T11391167 =
2017-12-18 06:53 METAR KBGR 181153Z 00000KT 10SM FEW110 OVC200 M15/M18 A3019 RMK AO2 SLP228 4/006
                 T11501178 11150 21178 56013 =
2017-12-18 05:53 METAR KBGR 181053Z 23003KT 10SM FEW110 BKN200 M16/M18 A3020 RMK AO2 SLP233
                 T11561178 =
2017-12-18 04:53 METAR KBGR 180953Z 00000KT 10SM FEW250 M17/M19 A3020 RMK AO2 SLP234 T11671189 =
2017-12-18 03:53 METAR KBGR 180853Z 00000KT 10SM FEW250 M17/M19 A3023 RMK AO2 SLP242 T11721194
                 58000 =
2017-12-18 02:53 METAR KBGR 180753Z 00000KT 10SM SCT250 M16/M19 A3023 RMK AO2 SLP243 T11561189 =
2017-12-18 01:53 METAR KBGR 180653Z 00000KT 10SM FEW250 M18/M20 A3024 RMK AO2 SLP247 T11781200 =
2017-12-18 00:53 METAR KBGR 180553Z 00000KT 10SM CLR M16/M18 A3023 RMK AO2 SLP242 4/006 T11611178
                 11117 21183 56012 =
2017-12-17 23:53 METAR KBGR 180453Z 00000KT 10SM FEW250 M16/M19 A3024 RMK AO2 SLP245 T11611189
                 410671172 =
2017-12-17 22:53 METAR KBGR 180353Z 00000KT 10SM FEW250 M16/M18 A3024 RMK AO2 SLP247 T11561183 =
2017-12-17 21:53 METAR KBGR 180253Z 25004KT 10SM FEW250 M13/M18 A3026 RMK AO2 SLP254 T11331183
                 53010 =
2017-12-17 20:53 METAR KBGR 180153Z 27004KT 10SM CLR M13/M18 A3024 RMK AO2 SLP246 T11281178 =
2017-12-17 19:53 METAR KBGR 180053Z 33004KT 10SM CLR M13/M18 A3022 RMK AO2 SLP242 T11331183 =
2017-12-17 18:53 METAR KBGR 172353Z 32006KT 10SM CLR M12/M18 A3023 RMK AO2 SLP244 4/006 T11171178
                 11067 21128 51018 =
2017-12-17 17:53 METAR KBGR 172253Z 31005KT 10SM FEW250 M11/M17 A3023 RMK AO2 SLP242 T11111167 =

Support USWX by starting your Amazon purchase here.